Time;durP1;ratioP1;P1;durP2;ratioP2;P2;SDS_P1;SDS_P2;PMS_P1;PMS_P2;Temp;Humidity;BMP_temperature;BMP_pressure;BME280_temperature;BME280_humidity;BME280_pressure;Samples;Min_cycle;Max_cycle;Signal;HPM_P1;HPM_P2
2022/01/27 00:00:45;;;;;;;;;;;;;;;3.23;91.95;102825.03;5051920;28;19970;-75
2022/01/27 00:03:29;;;;;;;;;;;;;;;3.36;91.69;102818.50;5068361;28;19916;-77
2022/01/27 00:05:59;;;;;;;;;;;;;;;3.23;92.24;102817.41;5070602;28;19916;-74
2022/01/27 00:08:36;;;;;;;;;;;;;;;3.38;91.05;102801.72;5036194;28;19967;-75
2022/01/27 00:11:08;;;;;;;;;;;;;;;3.36;91.29;102788.88;5049324;28;19920;-72
2022/01/27 00:13:43;;;;;;;;;;;;;;;3.40;90.86;102785.84;5052632;28;20435;-72
2022/01/27 00:16:17;;;;;;;;;;;;;;;3.33;91.06;102788.59;5072955;28;20265;-73
2022/01/27 00:18:44;;;;;;;;;;;;;;;3.33;91.42;102777.53;5067611;28;19917;-73
2022/01/27 00:21:10;;;;;;;;;;;;;;;3.30;91.41;102777.28;5049852;28;20381;-73
2022/01/27 00:23:35;;;;;;;;;;;;;;;3.31;91.13;102785.03;5068243;28;19951;-73
2022/01/27 00:26:00;;;;;;;;;;;;;;;3.19;91.92;102784.84;5064571;28;19928;-73
2022/01/27 00:28:26;;;;;;;;;;;;;;;3.27;91.38;102787.16;5054049;28;20377;-73
2022/01/27 00:30:51;;;;;;;;;;;;;;;3.23;91.84;102798.72;5051988;28;19957;-72
2022/01/27 00:33:16;;;;;;;;;;;;;;;3.24;91.73;102787.78;5069093;28;19920;-73
2022/01/27 00:35:41;;;;;;;;;;;;;;;3.28;91.44;102782.22;5048434;28;19999;-73
2022/01/27 00:38:07;;;;;;;;;;;;;;;3.25;91.25;102775.97;5036416;28;20377;-73
2022/01/27 00:40:32;;;;;;;;;;;;;;;3.28;90.79;102773.72;5059959;28;19967;-73
2022/01/27 00:42:58;;;;;;;;;;;;;;;3.60;89.90;102766.34;5072822;28;19924;-73
2022/01/27 00:45:24;;;;;;;;;;;;;;;3.48;90.17;102751.78;5070823;28;19920;-73
2022/01/27 00:47:50;;;;;;;;;;;;;;;3.48;89.75;102761.06;5070077;28;19920;-73
2022/01/27 00:50:18;;;;;;;;;;;;;;;3.30;91.04;102779.81;5060376;28;20316;-73
2022/01/27 00:52:48;;;;;;;;;;;;;;;3.42;90.20;102774.16;5071057;28;19917;-73
2022/01/27 00:55:14;;;;;;;;;;;;;;;3.30;91.15;102762.91;5053547;28;19959;-73
2022/01/27 01:00:08;;;;;;;;;;;;;;;3.45;90.69;102754.03;5073200;28;19929;-73
2022/01/27 01:07:37;;;;;;;;;;;;;;;3.33;90.88;102741.91;5071803;28;19916;-73
2022/01/27 01:15:00;;;;;;;;;;;;;;;3.32;91.08;102742.69;5072253;28;20014;-73
2022/01/27 01:18:06;;;;;;;;;;;;;;;3.25;91.00;102735.28;5057627;28;19920;-73
2022/01/27 01:20:26;;;;;;;;;;;;;;;3.33;91.42;102744.47;5066679;28;19928;-73
2022/01/27 01:34:20;;;;;;;;;;;;;;;3.43;90.84;102714.88;5019849;28;20019;-73
2022/01/27 01:36:56;;;;;;;;;;;;;;;3.39;90.87;102702.66;5072305;28;19925;-73
2022/01/27 01:39:22;;;;;;;;;;;;;;;3.36;91.08;102684.59;5075927;28;19916;-73
2022/01/27 01:41:48;;;;;;;;;;;;;;;3.44;90.30;102705.59;5072542;28;19924;-73
2022/01/27 01:44:13;;;;;;;;;;;;;;;3.37;90.97;102699.09;5055905;28;19920;-72
2022/01/27 01:46:39;;;;;;;;;;;;;;;3.39;91.60;102695.03;5059564;28;19924;-73
2022/01/27 01:49:04;;;;;;;;;;;;;;;3.42;90.74;102699.50;5072487;28;20015;-72
2022/01/27 01:51:32;;;;;;;;;;;;;;;3.42;91.33;102707.13;5075427;28;20291;-73
2022/01/27 01:53:57;;;;;;;;;;;;;;;3.38;91.19;102707.63;5070993;28;20440;-73
2022/01/27 01:56:23;;;;;;;;;;;;;;;3.39;91.34;102702.66;5081020;28;20003;-74
2022/01/27 01:58:49;;;;;;;;;;;;;;;3.39;91.11;102684.84;5075841;28;19916;-74
2022/01/27 02:01:14;;;;;;;;;;;;;;;3.40;91.27;102693.41;5069087;28;20015;-74
2022/01/27 02:03:39;;;;;;;;;;;;;;;3.57;90.79;102677.91;5053674;28;20573;-74
2022/01/27 02:06:06;;;;;;;;;;;;;;;3.58;90.70;102673.72;5045763;28;19931;-74
2022/01/27 02:19:08;;;;;;;;;;;;;;;3.48;90.87;102654.25;5068819;28;19978;-74
2022/01/27 02:21:33;;;;;;;;;;;;;;;3.60;90.29;102668.00;5066565;28;19968;-74
2022/01/27 02:23:58;;;;;;;;;;;;;;;3.52;90.63;102666.47;5064707;28;19954;-74
2022/01/27 02:26:24;;;;;;;;;;;;;;;3.52;90.81;102661.41;5040526;28;20349;-73
2022/01/27 02:28:49;;;;;;;;;;;;;;;3.50;91.12;102661.25;5070706;28;19928;-74
2022/01/27 02:31:14;;;;;;;;;;;;;;;3.51;90.94;102662.13;5069392;28;19972;-74
2022/01/27 02:33:40;;;;;;;;;;;;;;;3.48;90.83;102661.88;5060065;28;19959;-74
2022/01/27 02:36:05;;;;;;;;;;;;;;;3.49;91.27;102650.94;5058203;28;19943;-74
2022/01/27 02:38:30;;;;;;;;;;;;;;;3.52;90.69;102652.84;5069418;28;19920;-74
2022/01/27 02:40:59;;;;;;;;;;;;;;;3.57;90.89;102641.41;5074902;28;19924;-76
2022/01/27 02:43:24;;;;;;;;;;;;;;;3.63;90.65;102641.94;5066141;28;19924;-72
2022/01/27 02:45:53;;;;;;;;;;;;;;;3.54;90.95;102646.25;5054798;28;19928;-74
2022/01/27 02:48:18;;;;;;;;;;;;;;;3.65;90.60;102645.50;5052560;28;20481;-74
2022/01/27 02:50:44;;;;;;;;;;;;;;;3.59;90.88;102620.44;5083645;28;19921;-73
2022/01/27 02:53:09;;;;;;;;;;;;;;;3.56;91.00;102617.63;5069814;28;19920;-74
2022/01/27 02:55:34;;;;;;;;;;;;;;;3.66;90.43;102602.38;5077656;28;19925;-74
2022/01/27 02:57:59;;;;;;;;;;;;;;;3.60;90.74;102591.69;5078232;28;19924;-74
2022/01/27 03:00:25;;;;;;;;;;;;;;;3.61;90.78;102603.66;5073074;28;19943;-74
2022/01/27 03:02:51;;;;;;;;;;;;;;;3.43;91.58;102615.72;5057128;28;20439;-74
2022/01/27 03:05:16;;;;;;;;;;;;;;;3.42;92.08;102611.38;5053280;28;19920;-74
2022/01/27 03:07:43;;;;;;;;;;;;;;;3.38;92.11;102611.00;5061175;28;19924;-74
2022/01/27 03:10:08;;;;;;;;;;;;;;;3.39;92.07;102608.56;5070450;28;19916;-74
2022/01/27 03:12:37;;;;;;;;;;;;;;;3.37;92.46;102605.00;5067354;28;20019;-74
2022/01/27 03:15:03;;;;;;;;;;;;;;;3.46;92.10;102597.28;5042599;28;19924;-74
2022/01/27 03:17:28;;;;;;;;;;;;;;;3.38;92.08;102599.16;5066563;28;20499;-74
2022/01/27 03:19:54;;;;;;;;;;;;;;;3.32;93.08;102603.72;5058863;28;20418;-74
2022/01/27 03:22:20;;;;;;;;;;;;;;;3.30;92.87;102595.09;5055976;28;20410;-74
2022/01/27 03:24:45;;;;;;;;;;;;;;;3.33;92.75;102591.91;5076057;28;20034;-74
2022/01/27 03:27:18;;;;;;;;;;;;;;;3.36;92.79;102594.72;5055028;28;19978;-74
2022/01/27 03:29:43;;;;;;;;;;;;;;;3.31;93.20;102589.25;5055226;28;19924;-74
2022/01/27 03:32:09;;;;;;;;;;;;;;;3.26;93.62;102587.06;5051656;28;19920;-74
2022/01/27 03:34:34;;;;;;;;;;;;;;;3.31;93.40;102583.28;5048875;28;19959;-74
2022/01/27 03:36:59;;;;;;;;;;;;;;;3.30;93.01;102584.94;5069060;28;19920;-75
2022/01/27 03:39:26;;;;;;;;;;;;;;;3.27;93.43;102586.31;5054319;28;20015;-74
2022/01/27 03:41:53;;;;;;;;;;;;;;;3.30;93.41;102582.38;5054865;28;19935;-74
2022/01/27 03:44:20;;;;;;;;;;;;;;;3.30;93.48;102584.94;5035768;28;19974;-74
2022/01/27 03:46:45;;;;;;;;;;;;;;;3.34;93.70;102586.09;5073325;28;19916;-74
2022/01/27 03:49:11;;;;;;;;;;;;;;;3.37;93.05;102587.22;5066412;28;19936;-74
2022/01/27 03:51:36;;;;;;;;;;;;;;;3.44;92.85;102571.72;5070970;28;19928;-75
2022/01/27 03:54:02;;;;;;;;;;;;;;;3.40;93.20;102568.81;5067589;28;20304;-74
2022/01/27 03:56:27;;;;;;;;;;;;;;;3.38;93.12;102548.31;5036342;28;19920;-74
2022/01/27 03:58:52;;;;;;;;;;;;;;;3.33;93.68;102551.22;5052527;28;20324;-74
2022/01/27 04:01:18;;;;;;;;;;;;;;;3.37;93.72;102536.38;5053840;28;19924;-74
2022/01/27 04:03:44;;;;;;;;;;;;;;;3.52;92.83;102530.75;5052967;28;19920;-74
2022/01/27 04:06:10;;;;;;;;;;;;;;;3.33;93.63;102541.06;5052606;28;19945;-74
2022/01/27 04:08:37;;;;;;;;;;;;;;;3.33;93.59;102548.69;5063632;28;20005;-74
2022/01/27 04:11:03;;;;;;;;;;;;;;;3.31;93.92;102542.59;5055243;28;19981;-74
2022/01/27 04:13:28;;;;;;;;;;;;;;;3.27;93.73;102543.09;5058213;28;19920;-74
2022/01/27 04:15:53;;;;;;;;;;;;;;;3.19;94.16;102527.19;5077184;28;19983;-74
2022/01/27 04:18:18;;;;;;;;;;;;;;;3.13;94.80;102527.56;5072943;28;19966;-74
2022/01/27 04:20:44;;;;;;;;;;;;;;;3.13;94.23;102513.97;5058910;28;19928;-74
2022/01/27 04:23:09;;;;;;;;;;;;;;;3.01;94.98;102518.91;5074662;28;19916;-74
2022/01/27 04:25:37;;;;;;;;;;;;;;;2.95;95.49;102524.34;5063016;28;19928;-74
2022/01/27 04:28:06;;;;;;;;;;;;;;;2.82;95.99;102516.44;5057787;28;20274;-74
2022/01/27 04:30:32;;;;;;;;;;;;;;;2.80;95.50;102506.94;5040582;28;19951;-74
2022/01/27 04:33:00;;;;;;;;;;;;;;;2.84;95.81;102494.59;5073454;28;19994;-74
2022/01/27 04:35:27;;;;;;;;;;;;;;;2.76;95.97;102499.81;5077107;28;19928;-74
2022/01/27 04:40:45;;;;;;;;;;;;;;;2.82;96.27;102503.75;5059387;28;19924;-75
2022/01/27 04:45:59;;;;;;;;;;;;;;;2.72;98.24;102507.91;5074466;28;19924;-74
2022/01/27 04:48:26;;;;;;;;;;;;;;;2.70;98.19;102497.63;5071862;28;19916;-74
2022/01/27 04:50:52;;;;;;;;;;;;;;;2.74;97.58;102497.13;5075311;28;19927;-74
2022/01/27 04:53:24;;;;;;;;;;;;;;;2.68;98.87;102500.03;5041317;28;20019;-74
2022/01/27 04:55:50;;;;;;;;;;;;;;;2.63;98.21;102492.78;5071803;28;20344;-74
2022/01/27 04:58:20;;;;;;;;;;;;;;;2.73;97.42;102497.91;5053792;28;19921;-75
2022/01/27 05:00:46;;;;;;;;;;;;;;;2.67;97.45;102487.22;5070644;28;19932;-74
2022/01/27 05:03:32;;;;;;;;;;;;;;;2.75;97.62;102472.63;5054299;28;19950;-74
2022/01/27 05:05:57;;;;;;;;;;;;;;;2.66;98.21;102482.88;5068517;28;20451;-74
2022/01/27 05:08:23;;;;;;;;;;;;;;;2.74;98.36;102486.09;5041584;28;19928;-73
2022/01/27 05:11:02;;;;;;;;;;;;;;;2.77;97.87;102471.97;5054511;28;19917;-73
2022/01/27 05:13:28;;;;;;;;;;;;;;;2.84;98.22;102468.31;5055147;28;19962;-73
2022/01/27 05:15:54;;;;;;;;;;;;;;;2.92;97.97;102472.41;5057515;28;19924;-73
2022/01/27 05:18:20;;;;;;;;;;;;;;;2.90;97.74;102466.28;5057751;28;19924;-73
2022/01/27 05:20:45;;;;;;;;;;;;;;;2.94;98.92;102455.63;5070782;28;19943;-73
2022/01/27 05:23:11;;;;;;;;;;;;;;;3.07;98.33;102448.25;5074285;28;19916;-73
2022/01/27 05:25:36;;;;;;;;;;;;;;;3.17;98.30;102450.81;5073961;28;19920;-74
2022/01/27 05:28:02;;;;;;;;;;;;;;;3.25;97.98;102431.09;5037356;28;20326;-73
2022/01/27 05:30:27;;;;;;;;;;;;;;;3.27;98.00;102442.28;5055153;28;20344;-74
2022/01/27 05:32:52;;;;;;;;;;;;;;;3.49;97.38;102434.78;5056447;28;19951;-73
2022/01/27 05:35:18;;;;;;;;;;;;;;;3.54;97.20;102441.13;5057418;28;19982;-73
2022/01/27 05:37:43;;;;;;;;;;;;;;;3.61;96.76;102435.75;5040714;28;20012;-73
2022/01/27 05:40:09;;;;;;;;;;;;;;;3.72;96.19;102429.88;5071913;28;19975;-73
2022/01/27 05:42:34;;;;;;;;;;;;;;;3.74;96.17;102422.38;5078089;28;19943;-73
2022/01/27 05:45:01;;;;;;;;;;;;;;;3.72;96.65;102442.63;5069252;28;20205;-73
2022/01/27 05:47:27;;;;;;;;;;;;;;;3.76;96.28;102429.38;5043629;28;19976;-73
2022/01/27 05:49:52;;;;;;;;;;;;;;;3.93;95.63;102432.38;5056182;28;20015;-74
2022/01/27 05:52:17;;;;;;;;;;;;;;;3.93;95.51;102430.69;5058992;28;19953;-74
2022/01/27 05:54:42;;;;;;;;;;;;;;;3.89;95.60;102443.97;5057108;28;19943;-74
2022/01/27 05:57:08;;;;;;;;;;;;;;;3.89;95.89;102436.34;5049472;28;20290;-73
2022/01/27 05:59:33;;;;;;;;;;;;;;;3.88;96.10;102437.06;5052278;28;19916;-74
2022/01/27 06:01:59;;;;;;;;;;;;;;;3.94;95.93;102432.50;5054126;28;19921;-73
2022/01/27 06:04:24;;;;;;;;;;;;;;;3.88;96.58;102418.38;5049983;28;19925;-73
2022/01/27 06:06:50;;;;;;;;;;;;;;;3.80;97.31;102424.53;5055263;28;19967;-73
2022/01/27 06:09:15;;;;;;;;;;;;;;;3.69;97.97;102416.91;5079274;28;19986;-73
2022/01/27 06:11:40;;;;;;;;;;;;;;;3.67;98.48;102415.03;5059020;28;19924;-74
2022/01/27 06:14:05;;;;;;;;;;;;;;;3.68;98.53;102410.03;5051337;28;20339;-73
2022/01/27 06:16:31;;;;;;;;;;;;;;;3.60;99.41;102406.00;5081353;28;20430;-73
2022/01/27 06:18:56;;;;;;;;;;;;;;;3.63;99.72;102408.78;5068013;28;20181;-73
2022/01/27 06:21:22;;;;;;;;;;;;;;;3.69;98.26;102401.66;5072779;28;20043;-73
2022/01/27 06:23:48;;;;;;;;;;;;;;;3.69;98.60;102406.72;5064261;28;19928;-74
2022/01/27 06:26:13;;;;;;;;;;;;;;;3.61;100.00;102420.50;5069856;28;19920;-74
2022/01/27 06:28:38;;;;;;;;;;;;;;;3.64;100.00;102412.22;5070322;28;20406;-73
2022/01/27 06:31:04;;;;;;;;;;;;;;;3.65;99.82;102399.66;5070914;28;19921;-74
2022/01/27 06:33:29;;;;;;;;;;;;;;;3.61;100.00;102394.19;5072183;28;19917;-74
2022/01/27 06:35:54;;;;;;;;;;;;;;;3.62;100.00;102390.88;5052815;28;20431;-73
2022/01/27 06:38:20;;;;;;;;;;;;;;;3.66;100.00;102395.44;5073959;28;20019;-74
2022/01/27 06:40:45;;;;;;;;;;;;;;;3.65;100.00;102378.41;5034203;28;19948;-74
2022/01/27 06:43:14;;;;;;;;;;;;;;;3.72;100.00;102381.56;5056863;28;19952;-74
2022/01/27 06:45:39;;;;;;;;;;;;;;;3.75;100.00;102378.34;5069225;28;19921;-74
2022/01/27 06:48:05;;;;;;;;;;;;;;;3.76;100.00;102383.59;5068342;28;20439;-74
2022/01/27 06:50:32;;;;;;;;;;;;;;;3.87;99.97;102386.06;5050438;28;19973;-74
2022/01/27 06:52:57;;;;;;;;;;;;;;;3.87;99.78;102375.88;5055253;28;19924;-74
2022/01/27 06:55:22;;;;;;;;;;;;;;;3.93;99.76;102378.91;5052711;28;19951;-74
2022/01/27 06:57:49;;;;;;;;;;;;;;;3.92;100.00;102372.94;5049294;28;19928;-74
2022/01/27 07:00:15;;;;;;;;;;;;;;;3.90;100.00;102389.75;5065088;28;19925;-74
2022/01/27 07:02:40;;;;;;;;;;;;;;;3.93;100.00;102384.00;5033784;28;20820;-74
2022/01/27 07:05:06;;;;;;;;;;;;;;;3.96;100.00;102385.16;5069310;28;19924;-74
2022/01/27 07:07:31;;;;;;;;;;;;;;;3.97;100.00;102383.50;5070367;28;19928;-75
2022/01/27 07:09:56;;;;;;;;;;;;;;;4.03;99.37;102373.78;5054191;28;19956;-74
2022/01/27 07:12:22;;;;;;;;;;;;;;;3.98;100.00;102377.63;5071315;28;19927;-74
2022/01/27 07:14:47;;;;;;;;;;;;;;;4.06;100.00;102378.22;5054602;28;19928;-74
2022/01/27 07:17:14;;;;;;;;;;;;;;;4.10;99.87;102383.69;5053079;28;19920;-74
2022/01/27 07:19:39;;;;;;;;;;;;;;;4.13;100.00;102390.69;5066111;28;19959;-75
2022/01/27 07:22:05;;;;;;;;;;;;;;;4.10;100.00;102395.53;5059124;28;20063;-74
2022/01/27 07:24:30;;;;;;;;;;;;;;;4.16;100.00;102399.44;5055480;28;19925;-77
2022/01/27 07:26:55;;;;;;;;;;;;;;;4.18;100.00;102405.53;5064119;28;19920;-78
2022/01/27 07:29:20;;;;;;;;;;;;;;;4.19;100.00;102402.25;5068319;28;20618;-75
2022/01/27 07:31:46;;;;;;;;;;;;;;;4.25;99.70;102399.28;5042244;28;19935;-76
2022/01/27 07:34:11;;;;;;;;;;;;;;;4.22;99.82;102399.91;5053054;28;20324;-78
2022/01/27 07:36:37;;;;;;;;;;;;;;;4.24;99.87;102403.47;5051648;28;20305;-78
2022/01/27 07:39:03;;;;;;;;;;;;;;;4.26;99.60;102404.50;5035037;28;20388;-75
2022/01/27 07:41:28;;;;;;;;;;;;;;;4.21;100.00;102393.06;5052814;28;19924;-75
2022/01/27 07:43:54;;;;;;;;;;;;;;;4.20;100.00;102396.38;5058326;28;19921;-75
2022/01/27 07:46:19;;;;;;;;;;;;;;;4.33;100.00;102402.41;5066626;28;19931;-74
2022/01/27 07:48:44;;;;;;;;;;;;;;;4.07;100.00;102396.19;5051929;28;20388;-74
2022/01/27 07:51:10;;;;;;;;;;;;;;;4.02;100.00;102400.03;5073158;28;19920;-74
2022/01/27 07:53:36;;;;;;;;;;;;;;;3.95;100.00;102413.03;5067746;28;20073;-73
2022/01/27 07:56:02;;;;;;;;;;;;;;;3.91;100.00;102411.88;5047365;28;20548;-74
2022/01/27 07:58:28;;;;;;;;;;;;;;;3.90;100.00;102409.22;5036511;28;19924;-74
2022/01/27 08:00:53;;;;;;;;;;;;;;;3.94;100.00;102408.69;5071950;28;20459;-75
2022/01/27 08:03:18;;;;;;;;;;;;;;;3.98;100.00;102401.41;5051475;28;19921;-74
2022/01/27 08:05:44;;;;;;;;;;;;;;;3.95;100.00;102406.28;5046024;28;19971;-74
2022/01/27 08:08:09;;;;;;;;;;;;;;;3.95;100.00;102407.94;5061573;28;19928;-74
2022/01/27 08:10:38;;;;;;;;;;;;;;;3.92;100.00;102405.13;5061532;28;19916;-75
2022/01/27 08:13:05;;;;;;;;;;;;;;;4.00;100.00;102414.25;5038400;28;20011;-75
2022/01/27 08:15:31;;;;;;;;;;;;;;;3.99;100.00;102409.94;5065893;28;20384;-75
2022/01/27 08:17:57;;;;;;;;;;;;;;;4.00;100.00;102406.63;5072883;28;19916;-74
2022/01/27 08:20:22;;;;;;;;;;;;;;;3.95;100.00;102410.50;5050840;28;19924;-74
2022/01/27 08:22:50;;;;;;;;;;;;;;;4.04;100.00;102390.84;5061598;28;19979;-74
2022/01/27 08:25:15;;;;;;;;;;;;;;;4.03;100.00;102402.69;5064211;28;19921;-74
2022/01/27 08:27:44;;;;;;;;;;;;;;;4.05;100.00;102397.69;5066920;28;20328;-73
2022/01/27 08:30:11;;;;;;;;;;;;;;;4.16;100.00;102391.78;5062691;28;19925;-74
2022/01/27 08:32:56;;;;;;;;;;;;;;;4.06;100.00;102396.03;5065502;28;19928;-74
2022/01/27 08:35:21;;;;;;;;;;;;;;;4.11;100.00;102400.72;5061255;28;20014;-73
2022/01/27 08:37:47;;;;;;;;;;;;;;;4.07;100.00;102398.72;5034305;28;20055;-73
2022/01/27 08:40:14;;;;;;;;;;;;;;;4.14;100.00;102407.75;5071669;28;19962;-73
2022/01/27 08:42:40;;;;;;;;;;;;;;;4.15;100.00;102392.56;5050178;28;20011;-73
2022/01/27 08:45:07;;;;;;;;;;;;;;;4.12;100.00;102399.06;5063831;28;19925;-74
2022/01/27 08:47:32;;;;;;;;;;;;;;;4.11;100.00;102402.38;5063732;28;19942;-75
2022/01/27 08:49:57;;;;;;;;;;;;;;;4.16;100.00;102396.88;5038584;28;19940;-74
2022/01/27 08:52:24;;;;;;;;;;;;;;;4.26;100.00;102389.22;5045753;28;19916;-74
2022/01/27 08:54:49;;;;;;;;;;;;;;;4.23;100.00;102400.78;5065837;28;19920;-71
2022/01/27 08:57:14;;;;;;;;;;;;;;;4.25;100.00;102397.63;5045695;28;20288;-73
2022/01/27 08:59:40;;;;;;;;;;;;;;;4.29;100.00;102396.19;5045833;28;19912;-73
2022/01/27 09:02:05;;;;;;;;;;;;;;;4.31;100.00;102394.66;5055294;28;19986;-73
2022/01/27 09:04:30;;;;;;;;;;;;;;;4.33;100.00;102393.13;5052535;28;19917;-73
2022/01/27 09:06:56;;;;;;;;;;;;;;;4.34;100.00;102394.88;5065818;28;19928;-74
2022/01/27 09:09:21;;;;;;;;;;;;;;;4.44;100.00;102393.94;5069224;28;19924;-74
2022/01/27 09:11:46;;;;;;;;;;;;;;;4.40;100.00;102387.72;5066444;28;19924;-74
2022/01/27 09:14:13;;;;;;;;;;;;;;;4.42;100.00;102388.72;5065914;28;20411;-74
2022/01/27 09:16:39;;;;;;;;;;;;;;;4.50;100.00;102395.31;5053538;28;19923;-74
2022/01/27 09:19:04;;;;;;;;;;;;;;;4.48;100.00;102393.41;5053419;28;19913;-74
2022/01/27 09:21:40;;;;;;;;;;;;;;;4.56;100.00;102384.72;5051201;28;19924;-75
2022/01/27 09:24:06;;;;;;;;;;;;;;;4.57;100.00;102379.72;5067659;28;19931;-72
2022/01/27 09:26:41;;;;;;;;;;;;;;;4.62;100.00;102382.63;5053276;28;19920;-72
2022/01/27 09:29:07;;;;;;;;;;;;;;;4.65;100.00;102376.84;5041685;28;20281;-72
2022/01/27 09:31:33;;;;;;;;;;;;;;;4.66;100.00;102378.63;5060221;28;20412;-73
2022/01/27 09:33:58;;;;;;;;;;;;;;;4.68;100.00;102380.53;5048697;28;19960;-73
2022/01/27 09:36:23;;;;;;;;;;;;;;;4.73;100.00;102384.34;5052106;28;20373;-73
2022/01/27 09:38:49;;;;;;;;;;;;;;;4.73;100.00;102381.78;5067614;28;19916;-74
2022/01/27 09:41:18;;;;;;;;;;;;;;;4.79;100.00;102382.25;5067339;28;20442;-74
2022/01/27 09:43:46;;;;;;;;;;;;;;;4.79;100.00;102381.31;5068234;28;19921;-75
2022/01/27 09:46:13;;;;;;;;;;;;;;;4.81;100.00;102379.81;5069895;28;19920;-76
2022/01/27 09:48:43;;;;;;;;;;;;;;;4.84;100.00;102390.22;5039102;28;19931;-76
2022/01/27 09:53:49;;;;;;;;;;;;;;;4.94;100.00;102384.16;5065303;28;20365;-76
2022/01/27 09:56:15;;;;;;;;;;;;;;;4.98;100.00;102393.81;5069524;28;20339;-75
2022/01/27 09:58:40;;;;;;;;;;;;;;;4.99;100.00;102393.03;5070538;28;20019;-75
2022/01/27 10:01:06;;;;;;;;;;;;;;;5.07;100.00;102402.13;5053024;28;19920;-75
2022/01/27 10:03:31;;;;;;;;;;;;;;;5.04;100.00;102397.72;5058487;28;19917;-75
2022/01/27 10:06:12;;;;;;;;;;;;;;;5.10;100.00;102399.84;5055971;28;20025;-74
2022/01/27 10:08:40;;;;;;;;;;;;;;;5.11;100.00;102404.16;5070434;28;19912;-75
2022/01/27 10:11:13;;;;;;;;;;;;;;;5.22;100.00;102385.44;5065375;28;20334;-75
2022/01/27 10:13:41;;;;;;;;;;;;;;;5.19;100.00;102390.31;5052588;28;20278;-75
2022/01/27 10:16:07;;;;;;;;;;;;;;;5.25;100.00;102390.75;5062023;28;19943;-75
2022/01/27 10:18:35;;;;;;;;;;;;;;;5.24;100.00;102394.09;5048369;28;19920;-75
2022/01/27 10:21:02;;;;;;;;;;;;;;;5.28;100.00;102390.13;5063393;28;20346;-75
2022/01/27 10:23:31;;;;;;;;;;;;;;;5.26;100.00;102387.41;5080262;28;19920;-75
2022/01/27 10:26:03;;;;;;;;;;;;;;;5.33;100.00;102388.75;5051226;28;19920;-75
2022/01/27 10:28:56;;;;;;;;;;;;;;;5.31;100.00;102386.09;5063189;28;20293;-75
2022/01/27 10:31:20;;;;;;;;;;;;;;;5.35;100.00;102377.91;5064081;28;19924;-75
2022/01/27 10:33:46;;;;;;;;;;;;;;;5.38;100.00;102392.53;5050565;28;19944;-75
2022/01/27 10:36:15;;;;;;;;;;;;;;;5.40;100.00;102396.13;5058438;28;20429;-74
2022/01/27 10:38:41;;;;;;;;;;;;;;;5.40;100.00;102388.47;5052386;28;19912;-75
2022/01/27 10:41:07;;;;;;;;;;;;;;;5.41;100.00;102391.91;5058011;28;19924;-75
2022/01/27 10:43:33;;;;;;;;;;;;;;;5.45;100.00;102396.44;5052039;28;19957;-75
2022/01/27 10:45:59;;;;;;;;;;;;;;;5.53;100.00;102390.25;5075172;28;20308;-73
2022/01/27 10:48:28;;;;;;;;;;;;;;;5.55;100.00;102396.31;5068361;28;19931;-74
2022/01/27 10:53:41;;;;;;;;;;;;;;;5.64;100.00;102396.97;5067554;28;19939;-74
2022/01/27 10:56:07;;;;;;;;;;;;;;;5.71;100.00;102404.31;5084612;28;20015;-75
2022/01/27 10:58:34;;;;;;;;;;;;;;;5.70;100.00;102397.41;5062867;28;20003;-74
2022/01/27 11:00:59;;;;;;;;;;;;;;;5.74;100.00;102399.44;5056829;28;20296;-74
2022/01/27 11:03:25;;;;;;;;;;;;;;;5.72;100.00;102397.56;5060937;28;19923;-75
2022/01/27 11:05:51;;;;;;;;;;;;;;;5.73;100.00;102395.09;5061900;28;20007;-74
2022/01/27 11:08:20;;;;;;;;;;;;;;;5.73;100.00;102391.66;5065079;28;20385;-75
2022/01/27 11:10:48;;;;;;;;;;;;;;;5.83;100.00;102391.56;5051970;28;20278;-75
2022/01/27 11:13:15;;;;;;;;;;;;;;;5.81;100.00;102381.22;5060700;28;20454;-75
2022/01/27 11:15:42;;;;;;;;;;;;;;;5.82;100.00;102380.44;5051119;28;19912;-75
2022/01/27 11:18:07;;;;;;;;;;;;;;;5.91;100.00;102388.78;5049280;28;20309;-74
2022/01/27 11:20:49;;;;;;;;;;;;;;;6.02;100.00;102378.47;5066746;28;19943;-75
2022/01/27 11:26:01;;;;;;;;;;;;;;;6.07;100.00;102365.25;5058158;28;19920;-75
2022/01/27 11:28:27;;;;;;;;;;;;;;;6.09;100.00;102363.66;5047994;28;19920;-75
2022/01/27 11:31:09;;;;;;;;;;;;;;;6.08;100.00;102351.69;5058159;28;20339;-75
2022/01/27 11:33:35;;;;;;;;;;;;;;;6.12;100.00;102353.66;5065317;28;20312;-76
2022/01/27 11:36:08;;;;;;;;;;;;;;;6.14;100.00;102346.13;5066738;28;19968;-74
2022/01/27 11:38:34;;;;;;;;;;;;;;;6.14;100.00;102357.22;5048784;28;19923;-75
2022/01/27 11:40:59;;;;;;;;;;;;;;;6.21;100.00;102345.75;5049188;28;19932;-75
2022/01/27 11:43:34;;;;;;;;;;;;;;;6.18;100.00;102345.53;5032312;28;20085;-76
2022/01/27 11:46:14;;;;;;;;;;;;;;;6.18;100.00;102335.31;5045965;28;20517;-74
2022/01/27 11:48:39;;;;;;;;;;;;;;;6.23;100.00;102341.63;5063721;28;20373;-76
2022/01/27 11:51:06;;;;;;;;;;;;;;;6.23;100.00;102330.53;5048585;28;19932;-74
2022/01/27 11:53:52;;;;;;;;;;;;;;;6.23;100.00;102333.09;5065976;28;19970;-75
2022/01/27 11:56:23;;;;;;;;;;;;;;;6.29;100.00;102336.94;5058631;28;20134;-75
2022/01/27 11:58:49;;;;;;;;;;;;;;;6.29;100.00;102334.38;5079646;28;20396;-77
2022/01/27 12:01:21;;;;;;;;;;;;;;;6.28;100.00;102340.28;5047963;28;20432;-76
2022/01/27 12:04:05;;;;;;;;;;;;;;;6.28;100.00;102345.41;5065302;28;19924;-77
2022/01/27 12:06:41;;;;;;;;;;;;;;;6.31;100.00;102332.84;5048595;28;20293;-77
2022/01/27 12:09:18;;;;;;;;;;;;;;;6.31;100.00;102339.59;5067687;28;19931;-77
2022/01/27 12:11:45;;;;;;;;;;;;;;;6.43;100.00;102332.78;5056490;28;19913;-77
2022/01/27 12:14:10;;;;;;;;;;;;;;;6.38;100.00;102336.72;5060909;28;19916;-77
2022/01/27 12:19:02;;;;;;;;;;;;;;;6.47;100.00;102328.78;5067597;28;19917;-77
2022/01/27 12:21:35;;;;;;;;;;;;;;;6.50;100.00;102319.66;5050591;28;19924;-77
2022/01/27 12:24:10;;;;;;;;;;;;;;;6.57;100.00;102337.16;5050415;28;20590;-77
2022/01/27 12:26:49;;;;;;;;;;;;;;;6.53;100.00;102332.63;5044890;28;19921;-77
2022/01/27 12:29:21;;;;;;;;;;;;;;;6.53;100.00;102324.97;5047776;28;19913;-77
2022/01/27 12:31:46;;;;;;;;;;;;;;;6.56;100.00;102325.19;5066239;28;19923;-77
2022/01/27 12:34:12;;;;;;;;;;;;;;;6.55;100.00;102314.81;5064993;28;19921;-78
2022/01/27 12:36:37;;;;;;;;;;;;;;;6.64;100.00;102315.47;5049596;28;20399;-77
2022/01/27 12:39:02;;;;;;;;;;;;;;;6.61;100.00;102315.25;5072269;28;19928;-77
2022/01/27 12:41:35;;;;;;;;;;;;;;;6.64;100.00;102313.78;5061038;28;19928;-75
2022/01/27 12:44:09;;;;;;;;;;;;;;;6.65;100.00;102299.34;5064476;28;19917;-76
2022/01/27 12:46:35;;;;;;;;;;;;;;;6.73;100.00;102316.06;5053334;28;19965;-76
2022/01/27 12:49:01;;;;;;;;;;;;;;;6.69;100.00;102304.75;5028504;28;20035;-76
2022/01/27 12:51:27;;;;;;;;;;;;;;;6.70;100.00;102298.88;5038882;28;19990;-76
2022/01/27 12:54:02;;;;;;;;;;;;;;;6.85;100.00;102305.75;5043101;28;20436;-75
2022/01/27 12:56:27;;;;;;;;;;;;;;;6.76;100.00;102307.72;5043040;28;19917;-76
2022/01/27 12:58:53;;;;;;;;;;;;;;;6.84;100.00;102306.56;5040525;28;20054;-76
2022/01/27 13:01:19;;;;;;;;;;;;;;;6.81;100.00;102298.69;5048493;28;20357;-76
2022/01/27 13:04:00;;;;;;;;;;;;;;;6.90;100.00;102289.94;5046103;28;19921;-76
2022/01/27 13:06:29;;;;;;;;;;;;;;;6.92;100.00;102290.06;5039139;28;20275;-76
2022/01/27 13:09:13;;;;;;;;;;;;;;;6.90;100.00;102274.59;5034938;28;20401;-76
2022/01/27 13:11:40;;;;;;;;;;;;;;;6.91;100.00;102289.16;5040624;28;19963;-76
2022/01/27 13:14:06;;;;;;;;;;;;;;;6.92;100.00;102293.50;5050406;28;19999;-76
2022/01/27 13:16:39;;;;;;;;;;;;;;;6.94;100.00;102298.72;5046450;28;19923;-76
2022/01/27 13:19:10;;;;;;;;;;;;;;;6.95;100.00;102288.56;5040844;28;19940;-76
2022/01/27 13:21:38;;;;;;;;;;;;;;;6.97;100.00;102307.44;5042433;28;20397;-76
2022/01/27 13:24:11;;;;;;;;;;;;;;;7.01;100.00;102297.44;5037768;28;20023;-76
2022/01/27 13:26:37;;;;;;;;;;;;;;;7.02;100.00;102292.41;5039863;28;19921;-76
2022/01/27 13:29:02;;;;;;;;;;;;;;;7.10;100.00;102292.91;5045354;28;20282;-76
2022/01/27 13:31:28;;;;;;;;;;;;;;;7.05;100.00;102291.75;5052633;28;20857;-77